Terminal Aerodrome Forecast
Issued by NWS

Home | Current Version | Previous Version | Text Only | Print | Product List | Glossary On
Versions: 1 2 3 4 5 6 7 8 9 10 11 12 13 14 15 16 17 18 19 20
920
FTUS43 KDLH 192337
TAFHYR
TAF
KHYR 192337Z 2000/2024 05013G18KT 1 1/2SM -SN OVC025
     FM200200 05013G18KT 5SM -SN OVC025
     FM200400 05011G18KT 6SM -SN OVC020
     FM201000 04007KT 2SM -SN OVC020
     FM201600 03005KT 6SM -SN OVC015
     FM201900 29006KT P6SM BKN015=

USA.gov is the U.S. government's official web portal to all federal, state and local government web resources and services.